createdAt,value
2023-01-13T00:01:38.558Z,102135.16
2023-01-13T00:04:05.299Z,102116.53
2023-01-13T00:06:31.999Z,102106.25
2023-01-13T00:08:58.680Z,102123.72
2023-01-13T00:11:26.477Z,102117.34
2023-01-13T00:13:53.638Z,102100.66
2023-01-13T00:16:22.230Z,102102.00
2023-01-13T00:18:51.317Z,102102.25
2023-01-13T00:21:20.643Z,102117.69
2023-01-13T00:23:47.787Z,102100.91
2023-01-13T00:26:30.638Z,102095.63
2023-01-13T00:28:58.799Z,102110.59
2023-01-13T00:31:26.097Z,102097.97
2023-01-13T00:33:52.890Z,102109.41
2023-01-13T00:36:20.820Z,102105.78
2023-01-13T00:38:47.957Z,102107.38
2023-01-13T00:41:26.452Z,102110.28
2023-01-13T00:43:53.246Z,102085.41
2023-01-13T00:46:21.622Z,102103.34
2023-01-13T00:48:51.314Z,102103.81
2023-01-13T00:51:22.748Z,102110.75
2023-01-13T00:53:50.894Z,102087.03
2023-01-13T00:56:39.142Z,102104.56
2023-01-13T00:59:07.127Z,102085.34
2023-01-13T01:01:33.947Z,102081.66
2023-01-13T01:04:00.676Z,102095.78
2023-01-13T01:06:28.165Z,102092.34
2023-01-13T01:08:57.066Z,102079.06
2023-01-13T01:11:27.511Z,102090.56
2023-01-13T01:13:56.688Z,102093.13
2023-01-13T01:16:25.586Z,102096.56
2023-01-13T01:18:53.913Z,102090.41
2023-01-13T01:21:21.987Z,102075.50
2023-01-13T01:23:48.703Z,102101.41
2023-01-13T01:26:17.841Z,102105.13
2023-01-13T01:28:45.208Z,102096.25
2023-01-13T01:31:21.570Z,102101.25
2023-01-13T01:33:52.095Z,102095.22
2023-01-13T01:36:24.042Z,102057.88
2023-01-13T01:38:50.710Z,102082.19
2023-01-13T01:41:20.090Z,102069.53
2023-01-13T01:44:22.417Z,102079.81
2023-01-13T01:46:49.129Z,102091.25
2023-01-13T01:49:24.634Z,102081.03
2023-01-13T01:51:59.060Z,102082.81
2023-01-13T01:54:33.319Z,102069.53
2023-01-13T01:57:00.247Z,102089.56
2023-01-13T01:59:29.557Z,102063.19
2023-01-13T02:01:56.404Z,102078.94
2023-01-13T02:04:29.395Z,102066.78
2023-01-13T02:06:57.083Z,102069.44
2023-01-13T02:09:26.597Z,102056.41
2023-01-13T02:12:11.642Z,102055.63
2023-01-13T02:14:40.926Z,102056.25
2023-01-13T02:17:51.577Z,102069.88
2023-01-13T02:20:37.659Z,102072.53
2023-01-13T02:23:47.895Z,102067.41
2023-01-13T02:26:14.482Z,102079.34
2023-01-13T02:29:30.779Z,102075.97
2023-01-13T02:32:05.819Z,102080.25
2023-01-13T02:34:43.454Z,102072.69
2023-01-13T02:37:17.646Z,102078.63
2023-01-13T02:40:07.504Z,102065.06
2023-01-13T02:42:59.421Z,102047.13
2023-01-13T02:45:30.379Z,102057.66
2023-01-13T02:47:58.728Z,102064.09
2023-01-13T02:50:32.684Z,102053.69
2023-01-13T02:53:04.803Z,102018.75
2023-01-13T02:55:37.704Z,102060.06
2023-01-13T02:58:07.529Z,102044.63
2023-01-13T03:00:36.775Z,102031.69
2023-01-13T03:03:03.445Z,101985.22
2023-01-13T03:05:33.189Z,102025.03
2023-01-13T03:08:32.677Z,102013.94
2023-01-13T03:11:06.204Z,102012.41
2023-01-13T03:13:53.511Z,101955.66
2023-01-13T03:16:52.588Z,102018.34
2023-01-13T03:19:31.667Z,102021.88
2023-01-13T03:22:03.941Z,102018.59
2023-01-13T03:24:49.435Z,102013.53
2023-01-13T03:27:25.049Z,101999.41
2023-01-13T03:30:17.556Z,101958.53
2023-01-13T03:32:49.319Z,102024.81
2023-01-13T03:35:23.601Z,101971.31
2023-01-13T03:37:58.023Z,102001.38
2023-01-13T03:40:31.703Z,102012.09
2023-01-13T03:43:29.579Z,101994.41
2023-01-13T03:46:06.518Z,102000.75
2023-01-13T03:48:36.425Z,101993.66
2023-01-13T03:51:07.737Z,101997.59
2023-01-13T03:53:43.514Z,101964.50
2023-01-13T03:56:22.753Z,101973.00
2023-01-13T03:58:53.136Z,102002.03
2023-01-13T04:01:27.526Z,101995.94
2023-01-13T04:03:59.862Z,101996.09
2023-01-13T04:06:40.373Z,102005.56
2023-01-13T04:09:46.142Z,101988.94
2023-01-13T04:12:58.740Z,101998.75
2023-01-13T04:15:28.189Z,101995.84
2023-01-13T04:18:01.755Z,102000.41
2023-01-13T04:20:28.548Z,101996.00
2023-01-13T04:22:55.090Z,101976.72
2023-01-13T04:25:21.721Z,102003.16
2023-01-13T04:27:48.305Z,101987.47
2023-01-13T04:30:15.055Z,101997.03
2023-01-13T04:32:41.706Z,101975.50
2023-01-13T04:35:34.156Z,102006.53
2023-01-13T04:38:05.960Z,102004.69
2023-01-13T04:40:32.580Z,101978.75
2023-01-13T04:42:59.167Z,102017.47
2023-01-13T04:45:26.772Z,102014.09
2023-01-13T04:47:53.429Z,102003.47
2023-01-13T04:50:20.194Z,102005.66
2023-01-13T04:52:49.275Z,101986.84
2023-01-13T04:55:16.917Z,102010.63
2023-01-13T04:57:43.565Z,102010.91
2023-01-13T05:00:12.543Z,102002.66
2023-01-13T05:02:39.615Z,101989.50
2023-01-13T05:05:07.276Z,101991.34
2023-01-13T05:07:37.041Z,101994.94
2023-01-13T05:10:04.002Z,101990.38
2023-01-13T05:12:49.897Z,102004.53
2023-01-13T05:15:35.153Z,101985.38
2023-01-13T05:18:02.494Z,101991.19
2023-01-13T05:20:29.091Z,101991.28
2023-01-13T05:23:14.196Z,101996.72
2023-01-13T05:25:44.595Z,101987.00
2023-01-13T05:28:11.803Z,101967.53
2023-01-13T05:30:43.569Z,101989.66
2023-01-13T05:33:11.456Z,102002.03
2023-01-13T05:35:43.004Z,101984.44
2023-01-13T05:38:10.707Z,101998.59
2023-01-13T05:40:59.769Z,101997.69
2023-01-13T05:43:27.127Z,101995.94
2023-01-13T05:45:59.539Z,101999.31
2023-01-13T05:48:38.062Z,101895.78
2023-01-13T05:51:10.238Z,101998.50
2023-01-13T05:53:37.273Z,101989.81
2023-01-13T05:56:06.987Z,101978.81
2023-01-13T05:58:34.547Z,101986.06
2023-01-13T06:01:03.195Z,101983.63
2023-01-13T06:03:30.598Z,101995.94
2023-01-13T06:05:59.532Z,101989.16
2023-01-13T06:08:26.669Z,101985.72
2023-01-13T06:10:53.936Z,101984.59
2023-01-13T06:13:20.667Z,101990.59
2023-01-13T06:15:47.365Z,101976.63
2023-01-13T06:18:14.799Z,101978.72
2023-01-13T06:20:41.397Z,101989.88
2023-01-13T06:23:11.802Z,101976.94
2023-01-13T06:25:47.727Z,101971.47
2023-01-13T06:28:14.332Z,101972.28
2023-01-13T06:30:48.977Z,101987.31
2023-01-13T06:33:20.148Z,101950.25
2023-01-13T06:35:54.368Z,101985.78
2023-01-13T06:38:23.184Z,101984.16
2023-01-13T06:40:50.160Z,101985.09
2023-01-13T06:43:18.674Z,101978.16
2023-01-13T06:45:54.552Z,101985.09
2023-01-13T06:48:26.002Z,101989.63
2023-01-13T06:50:54.069Z,101987.38
2023-01-13T06:53:20.814Z,101985.78
2023-01-13T06:55:48.007Z,101995.94
2023-01-13T06:58:14.572Z,101987.38
2023-01-13T07:00:41.681Z,101991.91
2023-01-13T07:03:15.869Z,101995.25
2023-01-13T07:05:44.231Z,101992.69
2023-01-13T07:08:11.026Z,101993.59
2023-01-13T07:10:39.035Z,101984.88
2023-01-13T07:13:25.281Z,101977.72
2023-01-13T07:16:04.115Z,101982.88
2023-01-13T07:18:32.423Z,101986.75
2023-01-13T07:21:03.489Z,101970.28
2023-01-13T07:23:33.830Z,101957.34
2023-01-13T07:26:00.808Z,101968.00
2023-01-13T07:28:28.680Z,101959.50
2023-01-13T07:30:59.105Z,101960.66
2023-01-13T07:33:25.961Z,101959.88
2023-01-13T07:35:57.930Z,101969.72
2023-01-13T07:38:25.069Z,101964.22
2023-01-13T07:40:51.761Z,101963.69
2023-01-13T07:43:33.499Z,101934.13
2023-01-13T07:46:02.408Z,101971.44
2023-01-13T07:48:30.811Z,101964.78
2023-01-13T07:51:01.809Z,101962.50
2023-01-13T07:53:28.669Z,101955.06
2023-01-13T07:55:57.137Z,101963.84
2023-01-13T07:58:25.194Z,101939.25
2023-01-13T08:00:52.321Z,101941.59
2023-01-13T08:03:19.216Z,101959.03
2023-01-13T08:05:46.069Z,101954.63
2023-01-13T08:08:12.932Z,101957.97
2023-01-13T08:10:39.504Z,101946.09
2023-01-13T08:13:18.231Z,101947.84
2023-01-13T08:15:45.272Z,101954.03
2023-01-13T08:18:11.975Z,101954.84
2023-01-13T08:20:39.138Z,101946.16
2023-01-13T08:23:07.305Z,101947.84
2023-01-13T08:25:34.208Z,101948.88
2023-01-13T08:28:01.135Z,101923.16
2023-01-13T08:30:28.344Z,101926.72
2023-01-13T08:32:55.240Z,101940.09
2023-01-13T08:35:23.027Z,101969.56
2023-01-13T08:37:50.339Z,101948.56
2023-01-13T08:40:18.272Z,101955.41
2023-01-13T08:42:46.499Z,101953.13
2023-01-13T08:45:15.058Z,101952.91
2023-01-13T08:47:41.650Z,101953.22
2023-01-13T08:50:09.040Z,101930.47
2023-01-13T08:52:35.877Z,101950.94
2023-01-13T08:55:02.730Z,101950.44
2023-01-13T08:57:30.053Z,101962.75
2023-01-13T08:59:56.731Z,101955.59
2023-01-13T09:02:24.708Z,101943.59
2023-01-13T09:04:52.342Z,101937.19
2023-01-13T09:07:19.572Z,101933.44
2023-01-13T09:09:46.235Z,101929.38
2023-01-13T09:12:33.876Z,101933.44
2023-01-13T09:15:01.101Z,101941.53
2023-01-13T09:17:27.712Z,101932.16
2023-01-13T09:19:55.074Z,101916.56
2023-01-13T09:22:21.961Z,101918.47
2023-01-13T09:24:48.547Z,101916.09
2023-01-13T09:27:16.239Z,101923.03
2023-01-13T09:29:43.353Z,101915.94
2023-01-13T09:32:14.609Z,101881.44
2023-01-13T09:35:01.216Z,101912.09
2023-01-13T09:37:28.640Z,101910.53
2023-01-13T09:39:55.774Z,101907.00
2023-01-13T09:42:58.441Z,101900.53
2023-01-13T09:45:32.366Z,101915.41
2023-01-13T09:48:06.167Z,101910.31
2023-01-13T09:50:48.471Z,101903.31
2023-01-13T09:53:28.334Z,101886.00
2023-01-13T09:55:55.124Z,101902.00
2023-01-13T09:58:21.946Z,101909.84
2023-01-13T10:01:27.441Z,101908.16
2023-01-13T10:03:54.532Z,101908.75
2023-01-13T10:06:30.494Z,101912.38
2023-01-13T10:08:57.705Z,101905.56
2023-01-13T10:11:44.540Z,101861.44
2023-01-13T10:14:18.514Z,101897.84
2023-01-13T10:17:05.056Z,101899.34
2023-01-13T10:19:38.406Z,101904.34
2023-01-13T10:22:12.637Z,101908.59
2023-01-13T10:25:04.656Z,101903.38
2023-01-13T10:27:39.650Z,101880.78
2023-01-13T10:30:21.249Z,101893.13
2023-01-13T10:32:58.085Z,101891.53
2023-01-13T10:35:57.550Z,101891.94
2023-01-13T10:38:38.950Z,101880.78
2023-01-13T10:41:20.152Z,101901.81
2023-01-13T10:43:52.734Z,101883.56
2023-01-13T10:46:20.703Z,101899.75
2023-01-13T10:48:59.375Z,101894.72
2023-01-13T10:51:30.029Z,101892.03
2023-01-13T10:54:14.281Z,101883.88
2023-01-13T10:56:43.873Z,101897.91
2023-01-13T10:59:16.087Z,101891.09
2023-01-13T11:01:55.203Z,101902.47
2023-01-13T11:04:53.804Z,101889.31
2023-01-13T11:07:38.955Z,101893.88
2023-01-13T11:10:27.380Z,101897.38
2023-01-13T11:12:54.522Z,101898.28
2023-01-13T11:15:24.588Z,101898.41
2023-01-13T11:18:05.364Z,101888.72
2023-01-13T11:20:38.984Z,101889.72
2023-01-13T11:23:21.713Z,101892.59
2023-01-13T11:25:54.701Z,101888.25
2023-01-13T11:28:46.288Z,101892.59
2023-01-13T11:31:31.096Z,101883.22
2023-01-13T11:34:04.603Z,101885.00
2023-01-13T11:36:40.300Z,101886.59
2023-01-13T11:39:24.263Z,101896.03
2023-01-13T11:42:18.070Z,101873.25
2023-01-13T11:44:58.857Z,101876.09
2023-01-13T11:47:29.780Z,101873.97
2023-01-13T11:49:56.642Z,101872.50
2023-01-13T11:52:59.213Z,101881.91
2023-01-13T11:55:44.163Z,101871.41
2023-01-13T11:58:50.702Z,101873.25
2023-01-13T12:01:25.395Z,101876.63
2023-01-13T12:04:15.867Z,101881.84
2023-01-13T12:06:44.329Z,101858.91
2023-01-13T12:09:19.294Z,101876.34
2023-01-13T12:12:16.123Z,101865.06
2023-01-13T12:14:58.276Z,101859.19
2023-01-13T12:17:53.703Z,101866.38
2023-01-13T12:20:45.053Z,101862.88
2023-01-13T12:23:39.069Z,101865.44
2023-01-13T12:26:10.479Z,101843.31
2023-01-13T12:29:22.018Z,101864.41
2023-01-13T12:31:51.960Z,101842.19
2023-01-13T12:34:47.399Z,101869.56
2023-01-13T12:37:37.484Z,101866.97
2023-01-13T12:40:25.154Z,101858.44
2023-01-13T12:43:30.502Z,101856.72
2023-01-13T12:46:19.745Z,101861.75
2023-01-13T12:48:59.397Z,101864.34
2023-01-13T12:51:29.744Z,101858.56
2023-01-13T12:53:56.691Z,101861.88
2023-01-13T12:56:33.089Z,101865.38
2023-01-13T12:59:21.736Z,101868.81
2023-01-13T13:02:09.939Z,101850.44
2023-01-13T13:04:44.908Z,101854.28
2023-01-13T13:07:17.445Z,101846.97
2023-01-13T13:09:51.763Z,101853.34
2023-01-13T13:12:49.428Z,101866.50
2023-01-13T13:15:28.343Z,101850.72
2023-01-13T13:18:23.929Z,101871.72
2023-01-13T13:21:04.970Z,101797.78
2023-01-13T13:23:40.625Z,101876.03
2023-01-13T13:26:16.401Z,101873.50
2023-01-13T13:29:14.573Z,101884.78
2023-01-13T13:32:04.790Z,101871.81
2023-01-13T13:34:43.672Z,101876.03
2023-01-13T13:37:17.224Z,101861.22
2023-01-13T13:40:02.893Z,101867.47
2023-01-13T13:43:01.271Z,101865.84
2023-01-13T13:45:48.847Z,101834.00
2023-01-13T13:48:19.609Z,101869.16
2023-01-13T13:50:57.464Z,101852.63
2023-01-13T13:53:27.175Z,101878.66
2023-01-13T13:56:02.660Z,101870.06
2023-01-13T13:58:34.045Z,101856.13
2023-01-13T14:01:01.222Z,101865.72
2023-01-13T14:03:34.470Z,101884.09
2023-01-13T14:06:04.300Z,101846.50
2023-01-13T14:08:34.379Z,101879.78
2023-01-13T14:11:01.617Z,101877.34
2023-01-13T14:13:30.596Z,101862.59
2023-01-13T14:16:12.664Z,101876.34
2023-01-13T14:18:47.669Z,101842.16
2023-01-13T14:21:22.291Z,101834.13
2023-01-13T14:24:10.764Z,101874.00
2023-01-13T14:26:37.622Z,101860.69
2023-01-13T14:29:04.786Z,101868.69
2023-01-13T14:31:32.589Z,101874.00
2023-01-13T14:34:03.039Z,101870.41
2023-01-13T14:36:51.285Z,101866.88
2023-01-13T14:39:17.953Z,101880.25
2023-01-13T14:41:48.146Z,101871.50
2023-01-13T14:44:29.656Z,101876.06
2023-01-13T14:46:58.699Z,101873.31
2023-01-13T14:49:37.029Z,101865.56
2023-01-13T14:52:17.994Z,101878.84
2023-01-13T14:54:53.552Z,101864.03
2023-01-13T14:57:27.762Z,101873.19
2023-01-13T15:00:13.712Z,101880.13
2023-01-13T15:02:50.276Z,101882.72
2023-01-13T15:05:20.759Z,101873.38
2023-01-13T15:07:50.860Z,101885.56
2023-01-13T15:10:18.976Z,101874.25
2023-01-13T15:12:46.604Z,101856.00
2023-01-13T15:15:37.999Z,101880.66
2023-01-13T15:18:17.492Z,101874.88
2023-01-13T15:20:46.635Z,101872.44
2023-01-13T15:23:13.318Z,101871.69
2023-01-13T15:25:42.574Z,101860.63
2023-01-13T15:28:18.672Z,101868.31
2023-01-13T15:30:45.689Z,101872.78
2023-01-13T15:33:14.166Z,101862.47
2023-01-13T15:35:47.001Z,101853.88
2023-01-13T15:38:16.962Z,101850.31
2023-01-13T15:40:43.870Z,101858.72
2023-01-13T15:43:35.740Z,101841.16
2023-01-13T15:46:24.668Z,101865.97
2023-01-13T15:48:54.904Z,101870.88
2023-01-13T15:51:22.171Z,101864.69
2023-01-13T15:53:48.849Z,101864.44
2023-01-13T15:56:36.755Z,101888.41
2023-01-13T15:59:05.123Z,101896.81
2023-01-13T16:01:31.758Z,101886.50
2023-01-13T16:03:58.401Z,101874.81
2023-01-13T16:06:32.580Z,101854.66
2023-01-13T16:08:59.742Z,101880.38
2023-01-13T16:11:26.362Z,101882.81
2023-01-13T16:13:53.051Z,101879.69
2023-01-13T16:16:22.740Z,101881.94
2023-01-13T16:18:50.572Z,101890.69
2023-01-13T16:21:20.448Z,101892.59
2023-01-13T16:23:48.850Z,101889.81
2023-01-13T16:26:22.941Z,101784.63
2023-01-13T16:28:51.107Z,101887.16
2023-01-13T16:31:24.478Z,101892.19
2023-01-13T16:33:52.150Z,101833.94
2023-01-13T16:36:20.318Z,101863.00
2023-01-13T16:38:49.590Z,101885.31
2023-01-13T16:41:16.596Z,101857.72
2023-01-13T16:43:43.352Z,101887.84
2023-01-13T16:46:27.316Z,101895.66
2023-01-13T16:49:01.498Z,101899.94
2023-01-13T16:51:29.196Z,101881.69
2023-01-13T16:53:56.099Z,101886.13
2023-01-13T16:56:25.967Z,101858.53
2023-01-13T16:58:55.456Z,101887.72
2023-01-13T17:01:26.122Z,101799.91
2023-01-13T17:03:53.737Z,101865.31
2023-01-13T17:06:24.968Z,101872.16
2023-01-13T17:08:53.215Z,101868.44
2023-01-13T17:11:21.063Z,101870.47
2023-01-13T17:13:47.948Z,101868.50
2023-01-13T17:16:20.954Z,101869.41
2023-01-13T17:18:48.294Z,101873.16
2023-01-13T17:21:16.186Z,101866.28
2023-01-13T17:23:43.339Z,101849.56
2023-01-13T17:26:28.299Z,101876.78
2023-01-13T17:28:54.904Z,101866.53
2023-01-13T17:31:21.554Z,101869.97
2023-01-13T17:33:54.639Z,101873.03
2023-01-13T17:36:21.295Z,101873.03
2023-01-13T17:38:47.942Z,101873.78
2023-01-13T17:41:14.835Z,101839.84
2023-01-13T17:43:41.443Z,101864.44
2023-01-13T17:46:12.457Z,101883.78
2023-01-13T17:48:39.096Z,101859.75
2023-01-13T17:51:12.023Z,101811.50
2023-01-13T17:53:41.732Z,101882.75
2023-01-13T17:56:09.767Z,101868.16
2023-01-13T17:58:37.848Z,101871.31
2023-01-13T18:01:14.032Z,101887.09
2023-01-13T18:03:40.797Z,101879.91
2023-01-13T18:06:11.303Z,101868.63
2023-01-13T18:08:38.683Z,101881.06
2023-01-13T18:11:05.391Z,101854.09
2023-01-13T18:13:37.349Z,101876.53
2023-01-13T18:16:15.006Z,101857.59
2023-01-13T18:18:44.028Z,101888.09
2023-01-13T18:21:45.763Z,101911.31
2023-01-13T18:24:35.639Z,101873.53
2023-01-13T18:27:21.287Z,101902.66
2023-01-13T18:29:50.739Z,101901.63
2023-01-13T18:32:18.199Z,101890.50
2023-01-13T18:34:45.130Z,101905.28
2023-01-13T18:37:13.475Z,101895.66
2023-01-13T18:39:40.116Z,101908.81
2023-01-13T18:42:26.970Z,101902.72
2023-01-13T18:44:54.231Z,101907.06
2023-01-13T18:47:20.865Z,101893.56
2023-01-13T18:49:48.620Z,101909.72
2023-01-13T18:52:15.294Z,101911.31
2023-01-13T18:54:49.058Z,101903.75
2023-01-13T18:57:16.109Z,101869.53
2023-01-13T19:02:26.544Z,101872.03
2023-01-13T19:04:53.906Z,101889.50
2023-01-13T19:07:59.147Z,101823.78
2023-01-13T19:10:58.303Z,101908.75
2023-01-13T19:13:27.173Z,101858.03
2023-01-13T19:15:56.647Z,101832.47
2023-01-13T19:18:32.306Z,101894.28
2023-01-13T19:21:11.361Z,101892.66
2023-01-13T19:23:38.086Z,101891.59
2023-01-13T19:26:08.609Z,101895.16
2023-01-13T19:28:41.225Z,101894.34
2023-01-13T19:31:15.615Z,101888.47
2023-01-13T19:33:42.717Z,101893.56
2023-01-13T19:36:13.446Z,101891.66
2023-01-13T19:38:40.131Z,101891.84
2023-01-13T19:41:32.971Z,101886.81
2023-01-13T19:44:32.936Z,101892.72
2023-01-13T19:46:59.651Z,101896.06
2023-01-13T19:49:26.285Z,101902.91
2023-01-13T19:51:53.275Z,101897.94
2023-01-13T19:54:19.894Z,101903.31
2023-01-13T19:56:46.441Z,101907.66
2023-01-13T19:59:13.489Z,101880.59
2023-01-13T20:01:41.272Z,101910.22
2023-01-13T20:04:14.317Z,101893.75
2023-01-13T20:06:41.232Z,101909.34
2023-01-13T20:09:08.502Z,101901.56
2023-01-13T20:11:36.407Z,101897.19
2023-01-13T20:14:04.080Z,101878.69
2023-01-13T20:16:39.351Z,101895.34
2023-01-13T20:19:05.956Z,101888.31
2023-01-13T20:21:32.541Z,101886.56
2023-01-13T20:23:59.152Z,101899.59
2023-01-13T20:26:25.764Z,101861.03
2023-01-13T20:28:52.340Z,101880.16
2023-01-13T20:31:19.046Z,101899.41
2023-01-13T20:33:49.882Z,101805.75
2023-01-13T20:36:28.351Z,101899.41
2023-01-13T20:38:59.709Z,101915.00
2023-01-13T20:41:45.927Z,101920.97
2023-01-13T20:44:12.919Z,101916.44
2023-01-13T20:46:43.532Z,101905.09
2023-01-13T20:49:13.007Z,101917.47
2023-01-13T20:51:39.976Z,101918.13
2023-01-13T20:54:06.690Z,101925.13
2023-01-13T20:56:33.470Z,101934.72
2023-01-13T20:59:00.036Z,101926.81
2023-01-13T21:01:28.004Z,101935.53
2023-01-13T21:03:59.324Z,101928.53
2023-01-13T21:06:27.078Z,101918.00
2023-01-13T21:08:54.342Z,101913.84
2023-01-13T21:11:41.302Z,101933.19
2023-01-13T21:14:36.785Z,101929.69
2023-01-13T21:17:04.852Z,101933.88
2023-01-13T21:19:31.753Z,101929.63
2023-01-13T21:21:58.492Z,101936.47
2023-01-13T21:24:28.326Z,101932.28
2023-01-13T21:27:01.703Z,101929.47
2023-01-13T21:29:28.320Z,101932.28
2023-01-13T21:32:02.630Z,101939.16
2023-01-13T21:34:29.339Z,101941.56
2023-01-13T21:36:55.898Z,101938.84
2023-01-13T21:39:24.032Z,101922.50
2023-01-13T21:42:08.889Z,101939.41
2023-01-13T21:44:54.260Z,101944.63
2023-01-13T21:47:39.954Z,101936.66
2023-01-13T21:50:09.365Z,101940.22
2023-01-13T21:52:42.702Z,101935.91
2023-01-13T21:55:20.421Z,101922.94
2023-01-13T21:57:48.563Z,101917.47
2023-01-13T22:00:17.257Z,101940.06
2023-01-13T22:02:44.558Z,101946.25
2023-01-13T22:05:15.093Z,101934.31
2023-01-13T22:07:42.387Z,101944.63
2023-01-13T22:10:18.403Z,101951.59
2023-01-13T22:12:45.183Z,101934.22
2023-01-13T22:15:14.057Z,101940.28
2023-01-13T22:17:42.420Z,101945.69
2023-01-13T22:20:13.096Z,101925.00
2023-01-13T22:22:39.771Z,101951.47
2023-01-13T22:25:09.480Z,101908.22
2023-01-13T22:27:43.389Z,101942.78
2023-01-13T22:30:16.450Z,101939.47
2023-01-13T22:32:43.172Z,101947.22
2023-01-13T22:35:12.412Z,101943.66
2023-01-13T22:37:39.452Z,101929.31
2023-01-13T22:40:09.083Z,101950.59
2023-01-13T22:42:44.773Z,101955.75
2023-01-13T22:45:13.308Z,101953.84
2023-01-13T22:47:40.082Z,101954.09
2023-01-13T22:50:07.909Z,101958.47
2023-01-13T22:52:35.588Z,101956.56
2023-01-13T22:55:02.321Z,101949.78
2023-01-13T22:57:36.459Z,101960.91
2023-01-13T23:00:14.924Z,101956.63
2023-01-13T23:02:41.815Z,101951.28
2023-01-13T23:05:08.728Z,101962.69
2023-01-13T23:07:35.718Z,101894.78
2023-01-13T23:10:02.882Z,101968.66
2023-01-13T23:12:29.437Z,101950.28
2023-01-13T23:14:56.058Z,101957.16
2023-01-13T23:17:22.667Z,101969.28
2023-01-13T23:19:49.214Z,101959.28
2023-01-13T23:22:15.773Z,101945.78
2023-01-13T23:24:42.353Z,101961.84
2023-01-13T23:27:08.956Z,101954.53
2023-01-13T23:29:35.504Z,101960.59
2023-01-13T23:32:02.177Z,101961.84
2023-01-13T23:34:28.820Z,101959.13
2023-01-13T23:36:55.409Z,101970.44
2023-01-13T23:39:22.101Z,101934.03
2023-01-13T23:41:48.732Z,101972.13
2023-01-13T23:44:15.376Z,101953.72
2023-01-13T23:46:42.552Z,101973.88
2023-01-13T23:49:09.125Z,101970.22
2023-01-13T23:51:36.521Z,101972.13
2023-01-13T23:54:03.970Z,101968.47
2023-01-13T23:56:31.698Z,101956.03
2023-01-13T23:58:58.851Z,101962.47
